Meteo Giornale » Osservazioni meteo Stati Uniti (USA) » St Joseph Rosecrans Memorial
ore: 15:53 - Osservazioni Meteo St Joseph Rosecrans Memorial
Lat. 39° 46' N Lon. 94° 54' W Alt. 251 metri s.l.m.
36 °C
Sereno
Temp. 24 Ore
26 °C
36 °C
Sud
11.1 Km/h
Dew point 19 °C
Umidità 36 %
Visibilità 10 Km
Il sole sorge alle ore 06:46
Il sole tramonta alle ore 19:52
| Data e Ora | Cielo e Fenomeni | T °C | DP °C | Um. % | Pres. hPa | Vis. km | Vento km/h | |
|---|---|---|---|---|---|---|---|---|
| Oggi h: 15:53 | Sereno | 36 | 19 | 36 | 1013 | 10 | S 11.1 | |
| Oggi h: 14:53 | Sereno | 36 | 20 | 39 | 1013 | 10 | N 5.5 | |
| Oggi h: 13:53 | Sereno | 35 | 19 | 39 | 1014 | 10 | SO 14.8 | |
| Oggi h: 12:53 | Sereno | 34 | 19 | 41 | 1014 | 10 | S/SO 11.1 | |
| Oggi h: 11:53 | Sereno | 31 | 20 | 52 | 1014 | 10 | SO 11.1 | |
| Oggi h: 10:53 | Sereno | 29 | 19 | 54 | 1014 | 10 | SO 14.8 | |
| Oggi h: 09:53 | Sereno | 31 | 18 | 45 | 1013 | 10 | SO 18.5 | |
| Oggi h: 08:53 | Sereno | 28 | 18 | 54 | 1014 | 10 | S/SO 18.5 | |
| Oggi h: 07:53 | Nuvoloso | 27 | 17 | 54 | 1013 | 10 | S/SO 18.5 | |
| Oggi h: 06:53 | Sereno | 26 | 17 | 57 | 1012 | 10 | S/SO 20.3 | |
| Oggi h: 05:53 | Sereno | 26 | 17 | 57 | 1012 | 10 | S 14.8 | |
| Oggi h: 04:53 | Sereno | 26 | 17 | 57 | 1012 | 10 | S 14.8 | |
| Oggi h: 03:53 | Sereno | 26 | 17 | 57 | 1011 | 10 | S 13 | |
| Oggi h: 02:53 | Sereno | 27 | 17 | 54 | 1011 | 10 | S 11.1 | |
| Oggi h: 01:53 | Sereno | 28 | 17 | 51 | 1011 | 10 | S 14.8 | |
| Oggi h: 00:53 | Sereno | 28 | 17 | 51 | 1011 | 10 | S 13 | |
| Ieri h: 23:53 | Sereno | 28 | 17 | 51 | 1011 | 10 | S 13 | |
| Ieri h: 22:53 | Sereno | 30 | 17 | 45 | 1010 | 10 | S 18.5 | |
| Ieri h: 21:53 | Sereno | 30 | 17 | 45 | 1010 | 10 | S 14.8 | |
| Ieri h: 20:53 | Sereno | 30 | 19 | 51 | 1010 | 10 | S 13 | |
| Ieri h: 19:53 | Sereno | 31 | 19 | 48 | 1009 | 10 | S 14.8 | |
| Ieri h: 18:53 | Sereno | 34 | 21 | 46 | 1009 | 10 | S/SE 16.7 | |
| Ieri h: 17:53 | Sereno | 36 | 19 | 36 | 1009 | 10 | S 24 | |
| Ieri h: 16:53 | Sereno | 36 | 20 | 39 | 1009 | 10 | S 25.9 | |



